sensor_id;sensor_type;location;lat;lon;timestamp;temperature;humidity
68922;DHT22;55959;51.244;5.724;2023-02-28T00:01:27;4.30;57.80
68922;DHT22;55959;51.244;5.724;2023-02-28T00:03:54;4.30;57.80
68922;DHT22;55959;51.244;5.724;2023-02-28T00:06:21;4.20;57.70
68922;DHT22;55959;51.244;5.724;2023-02-28T00:08:48;4.20;57.80
68922;DHT22;55959;51.244;5.724;2023-02-28T00:11:15;4.20;57.80
68922;DHT22;55959;51.244;5.724;2023-02-28T00:13:53;4.20;57.90
68922;DHT22;55959;51.244;5.724;2023-02-28T00:16:22;4.10;57.90
68922;DHT22;55959;51.244;5.724;2023-02-28T00:18:49;4.10;58.00
68922;DHT22;55959;51.244;5.724;2023-02-28T00:21:17;4.10;58.00
68922;DHT22;55959;51.244;5.724;2023-02-28T00:23:44;4.10;58.00
68922;DHT22;55959;51.244;5.724;2023-02-28T00:26:12;4.10;58.00
68922;DHT22;55959;51.244;5.724;2023-02-28T00:28:38;4.00;58.00
68922;DHT22;55959;51.244;5.724;2023-02-28T00:31:06;4.00;58.00
68922;DHT22;55959;51.244;5.724;2023-02-28T00:33:31;4.00;58.00
68922;DHT22;55959;51.244;5.724;2023-02-28T00:36:07;4.00;58.10
68922;DHT22;55959;51.244;5.724;2023-02-28T00:38:38;4.00;58.10
68922;DHT22;55959;51.244;5.724;2023-02-28T00:41:06;3.90;58.10
68922;DHT22;55959;51.244;5.724;2023-02-28T00:43:34;3.90;58.20
68922;DHT22;55959;51.244;5.724;2023-02-28T00:46:11;3.90;58.20
68922;DHT22;55959;51.244;5.724;2023-02-28T00:48:50;3.80;58.30
68922;DHT22;55959;51.244;5.724;2023-02-28T00:51:16;3.80;58.30
68922;DHT22;55959;51.244;5.724;2023-02-28T00:53:42;3.70;58.30
68922;DHT22;55959;51.244;5.724;2023-02-28T00:56:08;3.80;58.40
68922;DHT22;55959;51.244;5.724;2023-02-28T00:58:36;3.70;58.40
68922;DHT22;55959;51.244;5.724;2023-02-28T01:01:02;3.70;58.50
68922;DHT22;55959;51.244;5.724;2023-02-28T01:03:28;3.70;58.50
68922;DHT22;55959;51.244;5.724;2023-02-28T01:05:54;3.70;58.70
68922;DHT22;55959;51.244;5.724;2023-02-28T01:08:21;3.60;58.60
68922;DHT22;55959;51.244;5.724;2023-02-28T01:10:47;3.60;58.80
68922;DHT22;55959;51.244;5.724;2023-02-28T01:13:15;3.60;58.90
68922;DHT22;55959;51.244;5.724;2023-02-28T01:15:48;3.50;58.80
68922;DHT22;55959;51.244;5.724;2023-02-28T01:18:16;3.50;58.90
68922;DHT22;55959;51.244;5.724;2023-02-28T01:20:46;3.50;59.00
68922;DHT22;55959;51.244;5.724;2023-02-28T01:23:12;3.50;59.10
68922;DHT22;55959;51.244;5.724;2023-02-28T01:25:38;3.50;59.20
68922;DHT22;55959;51.244;5.724;2023-02-28T01:28:05;3.50;59.30
68922;DHT22;55959;51.244;5.724;2023-02-28T01:30:32;3.50;59.40
68922;DHT22;55959;51.244;5.724;2023-02-28T01:32:58;3.40;59.40
68922;DHT22;55959;51.244;5.724;2023-02-28T01:35:26;3.40;59.40
68922;DHT22;55959;51.244;5.724;2023-02-28T01:38:03;3.40;59.50
68922;DHT22;55959;51.244;5.724;2023-02-28T01:40:29;3.40;59.50
68922;DHT22;55959;51.244;5.724;2023-02-28T01:42:55;3.40;59.50
68922;DHT22;55959;51.244;5.724;2023-02-28T01:45:29;3.30;59.50
68922;DHT22;55959;51.244;5.724;2023-02-28T01:48:00;3.30;59.50
68922;DHT22;55959;51.244;5.724;2023-02-28T01:50:31;3.30;59.50
68922;DHT22;55959;51.244;5.724;2023-02-28T01:53:04;3.30;59.60
68922;DHT22;55959;51.244;5.724;2023-02-28T01:55:32;3.30;59.60
68922;DHT22;55959;51.244;5.724;2023-02-28T01:58:01;3.20;59.60
68922;DHT22;55959;51.244;5.724;2023-02-28T02:00:29;3.20;59.50
68922;DHT22;55959;51.244;5.724;2023-02-28T02:02:57;3.20;59.60
68922;DHT22;55959;51.244;5.724;2023-02-28T02:05:27;3.20;59.60
68922;DHT22;55959;51.244;5.724;2023-02-28T02:10:57;3.10;59.60
68922;DHT22;55959;51.244;5.724;2023-02-28T02:25:22;3.00;60.00
68922;DHT22;55959;51.244;5.724;2023-02-28T02:34:34;2.80;60.20
68922;DHT22;55959;51.244;5.724;2023-02-28T02:37:15;2.80;60.40
68922;DHT22;55959;51.244;5.724;2023-02-28T02:40:24;2.80;60.40
68922;DHT22;55959;51.244;5.724;2023-02-28T02:43:19;2.80;60.60
68922;DHT22;55959;51.244;5.724;2023-02-28T02:45:53;2.70;60.60
68922;DHT22;55959;51.244;5.724;2023-02-28T02:48:26;2.70;60.70
68922;DHT22;55959;51.244;5.724;2023-02-28T02:50:57;2.70;60.80
68922;DHT22;55959;51.244;5.724;2023-02-28T02:53:37;2.70;60.90
68922;DHT22;55959;51.244;5.724;2023-02-28T02:56:07;2.70;60.90
68922;DHT22;55959;51.244;5.724;2023-02-28T02:58:37;2.70;61.00
68922;DHT22;55959;51.244;5.724;2023-02-28T03:01:10;2.70;61.90
68922;DHT22;55959;51.244;5.724;2023-02-28T03:03:40;2.60;61.10
68922;DHT22;55959;51.244;5.724;2023-02-28T03:06:06;2.60;61.10
68922;DHT22;55959;51.244;5.724;2023-02-28T03:08:37;2.60;61.20
68922;DHT22;55959;51.244;5.724;2023-02-28T03:11:12;2.60;61.30
68922;DHT22;55959;51.244;5.724;2023-02-28T03:16:47;2.60;61.50
68922;DHT22;55959;51.244;5.724;2023-02-28T03:25:36;2.60;62.80
68922;DHT22;55959;51.244;5.724;2023-02-28T03:28:23;2.50;63.00
68922;DHT22;55959;51.244;5.724;2023-02-28T03:31:27;2.50;63.00
68922;DHT22;55959;51.244;5.724;2023-02-28T03:34:14;2.50;63.00
68922;DHT22;55959;51.244;5.724;2023-02-28T03:36:53;2.50;63.00
68922;DHT22;55959;51.244;5.724;2023-02-28T03:39:28;2.50;62.80
68922;DHT22;55959;51.244;5.724;2023-02-28T03:42:07;2.50;62.80
68922;DHT22;55959;51.244;5.724;2023-02-28T03:44:53;2.50;62.70
68922;DHT22;55959;51.244;5.724;2023-02-28T03:47:29;2.50;62.70
68922;DHT22;55959;51.244;5.724;2023-02-28T03:50:12;2.50;62.70
68922;DHT22;55959;51.244;5.724;2023-02-28T03:53:21;2.40;62.80
68922;DHT22;55959;51.244;5.724;2023-02-28T03:56:07;2.50;63.00
68922;DHT22;55959;51.244;5.724;2023-02-28T03:58:51;2.40;63.00
68922;DHT22;55959;51.244;5.724;2023-02-28T04:01:25;2.40;63.00
68922;DHT22;55959;51.244;5.724;2023-02-28T04:03:55;2.40;63.00
68922;DHT22;55959;51.244;5.724;2023-02-28T04:06:22;2.40;63.00
68922;DHT22;55959;51.244;5.724;2023-02-28T04:08:49;2.40;63.20
68922;DHT22;55959;51.244;5.724;2023-02-28T04:11:22;2.40;63.10
68922;DHT22;55959;51.244;5.724;2023-02-28T04:13:52;2.40;63.20
68922;DHT22;55959;51.244;5.724;2023-02-28T04:16:18;2.40;63.20
68922;DHT22;55959;51.244;5.724;2023-02-28T04:18:44;2.40;63.30
68922;DHT22;55959;51.244;5.724;2023-02-28T04:21:11;2.40;63.40
68922;DHT22;55959;51.244;5.724;2023-02-28T04:23:37;2.40;63.30
68922;DHT22;55959;51.244;5.724;2023-02-28T04:26:03;2.30;63.20
68922;DHT22;55959;51.244;5.724;2023-02-28T04:28:31;2.30;63.20
68922;DHT22;55959;51.244;5.724;2023-02-28T04:31:03;2.30;63.10
68922;DHT22;55959;51.244;5.724;2023-02-28T04:33:31;2.30;63.00
68922;DHT22;55959;51.244;5.724;2023-02-28T04:38:26;2.30;62.80
68922;DHT22;55959;51.244;5.724;2023-02-28T04:40:52;2.30;62.90
68922;DHT22;55959;51.244;5.724;2023-02-28T04:43:17;2.20;62.70
68922;DHT22;55959;51.244;5.724;2023-02-28T04:45:43;2.20;62.70
68922;DHT22;55959;51.244;5.724;2023-02-28T04:48:09;2.20;62.70
68922;DHT22;55959;51.244;5.724;2023-02-28T04:50:35;2.20;62.80
68922;DHT22;55959;51.244;5.724;2023-02-28T04:53:01;2.20;62.70
68922;DHT22;55959;51.244;5.724;2023-02-28T04:55:27;2.20;63.00
68922;DHT22;55959;51.244;5.724;2023-02-28T04:57:52;2.10;62.80
68922;DHT22;55959;51.244;5.724;2023-02-28T05:00:18;2.10;63.00
68922;DHT22;55959;51.244;5.724;2023-02-28T05:02:44;2.10;63.00
68922;DHT22;55959;51.244;5.724;2023-02-28T05:05:10;2.10;63.10
68922;DHT22;55959;51.244;5.724;2023-02-28T05:07:41;2.10;63.20
68922;DHT22;55959;51.244;5.724;2023-02-28T05:10:08;2.00;63.10
68922;DHT22;55959;51.244;5.724;2023-02-28T05:12:34;2.00;63.20
68922;DHT22;55959;51.244;5.724;2023-02-28T05:15:00;2.00;63.20
68922;DHT22;55959;51.244;5.724;2023-02-28T05:17:27;2.00;63.20
68922;DHT22;55959;51.244;5.724;2023-02-28T05:19:53;1.90;63.20
68922;DHT22;55959;51.244;5.724;2023-02-28T05:22:19;2.00;63.20
68922;DHT22;55959;51.244;5.724;2023-02-28T05:24:45;1.90;63.20
68922;DHT22;55959;51.244;5.724;2023-02-28T05:27:11;1.90;63.20
68922;DHT22;55959;51.244;5.724;2023-02-28T05:29:37;1.90;63.30
68922;DHT22;55959;51.244;5.724;2023-02-28T05:32:12;1.90;63.40
68922;DHT22;55959;51.244;5.724;2023-02-28T05:34:38;1.90;63.40
68922;DHT22;55959;51.244;5.724;2023-02-28T05:37:08;1.90;63.40
68922;DHT22;55959;51.244;5.724;2023-02-28T05:39:37;1.80;63.40
68922;DHT22;55959;51.244;5.724;2023-02-28T05:42:04;1.80;63.40
68922;DHT22;55959;51.244;5.724;2023-02-28T05:44:30;1.80;63.40
68922;DHT22;55959;51.244;5.724;2023-02-28T05:46:56;1.80;63.50
68922;DHT22;55959;51.244;5.724;2023-02-28T05:49:22;1.80;63.50
68922;DHT22;55959;51.244;5.724;2023-02-28T05:51:48;1.70;63.50
68922;DHT22;55959;51.244;5.724;2023-02-28T05:54:14;1.70;63.60
68922;DHT22;55959;51.244;5.724;2023-02-28T05:56:40;1.70;63.80
68922;DHT22;55959;51.244;5.724;2023-02-28T05:59:09;1.70;63.90
68922;DHT22;55959;51.244;5.724;2023-02-28T06:01:41;1.70;64.00
68922;DHT22;55959;51.244;5.724;2023-02-28T06:04:14;1.70;64.00
68922;DHT22;55959;51.244;5.724;2023-02-28T06:06:48;1.70;64.20
68922;DHT22;55959;51.244;5.724;2023-02-28T06:09:15;1.60;64.20
68922;DHT22;55959;51.244;5.724;2023-02-28T06:11:41;1.60;64.20
68922;DHT22;55959;51.244;5.724;2023-02-28T06:14:07;1.60;64.40
68922;DHT22;55959;51.244;5.724;2023-02-28T06:16:40;1.60;64.60
68922;DHT22;55959;51.244;5.724;2023-02-28T06:19:06;1.60;65.00
68922;DHT22;55959;51.244;5.724;2023-02-28T06:21:32;1.60;65.20
68922;DHT22;55959;51.244;5.724;2023-02-28T06:23:58;1.60;65.30
68922;DHT22;55959;51.244;5.724;2023-02-28T06:26:26;1.60;65.30
68922;DHT22;55959;51.244;5.724;2023-02-28T06:28:52;1.60;65.30
68922;DHT22;55959;51.244;5.724;2023-02-28T06:31:18;1.60;65.40
68922;DHT22;55959;51.244;5.724;2023-02-28T06:33:45;1.60;65.40
68922;DHT22;55959;51.244;5.724;2023-02-28T06:36:13;1.60;65.60
68922;DHT22;55959;51.244;5.724;2023-02-28T06:38:40;1.60;65.80
68922;DHT22;55959;51.244;5.724;2023-02-28T06:41:07;1.60;65.80
68922;DHT22;55959;51.244;5.724;2023-02-28T06:43:36;1.60;65.90
68922;DHT22;55959;51.244;5.724;2023-02-28T06:46:06;1.60;65.80
68922;DHT22;55959;51.244;5.724;2023-02-28T06:48:34;1.60;65.80
68922;DHT22;55959;51.244;5.724;2023-02-28T06:51:08;1.60;65.80
68922;DHT22;55959;51.244;5.724;2023-02-28T06:53:39;1.60;65.90
68922;DHT22;55959;51.244;5.724;2023-02-28T06:56:08;1.60;65.90
68922;DHT22;55959;51.244;5.724;2023-02-28T06:58:35;1.60;65.90
68922;DHT22;55959;51.244;5.724;2023-02-28T07:01:03;1.60;66.00
68922;DHT22;55959;51.244;5.724;2023-02-28T07:03:30;1.60;66.00
68922;DHT22;55959;51.244;5.724;2023-02-28T07:05:56;1.60;66.00
68922;DHT22;55959;51.244;5.724;2023-02-28T07:08:23;1.70;66.10
68922;DHT22;55959;51.244;5.724;2023-02-28T07:10:54;1.70;66.20
68922;DHT22;55959;51.244;5.724;2023-02-28T07:13:20;1.70;66.40
68922;DHT22;55959;51.244;5.724;2023-02-28T07:15:58;1.70;66.60
68922;DHT22;55959;51.244;5.724;2023-02-28T07:18:25;1.70;66.70
68922;DHT22;55959;51.244;5.724;2023-02-28T07:20:53;1.70;66.80
68922;DHT22;55959;51.244;5.724;2023-02-28T07:23:19;1.70;66.90
68922;DHT22;55959;51.244;5.724;2023-02-28T07:25:45;1.70;66.90
68922;DHT22;55959;51.244;5.724;2023-02-28T07:28:12;1.80;67.00
68922;DHT22;55959;51.244;5.724;2023-02-28T07:30:39;1.80;67.10
68922;DHT22;55959;51.244;5.724;2023-02-28T07:33:08;1.80;67.10
68922;DHT22;55959;51.244;5.724;2023-02-28T07:35:34;1.90;67.20
68922;DHT22;55959;51.244;5.724;2023-02-28T07:38:00;1.90;67.30
68922;DHT22;55959;51.244;5.724;2023-02-28T07:40:28;1.90;67.30
68922;DHT22;55959;51.244;5.724;2023-02-28T07:42:55;1.90;67.40
68922;DHT22;55959;51.244;5.724;2023-02-28T07:45:21;2.00;67.40
68922;DHT22;55959;51.244;5.724;2023-02-28T07:48:06;2.00;67.50
68922;DHT22;55959;51.244;5.724;2023-02-28T07:50:36;2.00;67.60
68922;DHT22;55959;51.244;5.724;2023-02-28T07:53:05;2.10;67.50
68922;DHT22;55959;51.244;5.724;2023-02-28T07:55:37;2.10;67.50
68922;DHT22;55959;51.244;5.724;2023-02-28T07:58:13;2.20;67.40
68922;DHT22;55959;51.244;5.724;2023-02-28T08:00:51;2.20;67.20
68922;DHT22;55959;51.244;5.724;2023-02-28T08:03:24;2.30;67.00
68922;DHT22;55959;51.244;5.724;2023-02-28T08:06:03;2.30;66.80
68922;DHT22;55959;51.244;5.724;2023-02-28T08:08:55;2.40;66.50
68922;DHT22;55959;51.244;5.724;2023-02-28T08:11:41;2.40;66.40
68922;DHT22;55959;51.244;5.724;2023-02-28T08:14:15;2.50;66.30
68922;DHT22;55959;51.244;5.724;2023-02-28T08:16:42;2.60;66.20
68922;DHT22;55959;51.244;5.724;2023-02-28T08:19:08;2.60;65.90
68922;DHT22;55959;51.244;5.724;2023-02-28T08:21:34;2.70;65.80
68922;DHT22;55959;51.244;5.724;2023-02-28T08:24:00;2.70;65.60
68922;DHT22;55959;51.244;5.724;2023-02-28T08:26:29;2.80;65.40
68922;DHT22;55959;51.244;5.724;2023-02-28T08:28:55;2.80;64.80
68922;DHT22;55959;51.244;5.724;2023-02-28T08:31:21;2.90;64.80
68922;DHT22;55959;51.244;5.724;2023-02-28T08:33:56;3.00;64.60
68922;DHT22;55959;51.244;5.724;2023-02-28T08:36:30;3.10;63.60
68922;DHT22;55959;51.244;5.724;2023-02-28T08:41:52;3.20;63.00
68922;DHT22;55959;51.244;5.724;2023-02-28T08:44:21;3.20;62.40
68922;DHT22;55959;51.244;5.724;2023-02-28T08:50:32;3.40;61.00
68922;DHT22;55959;51.244;5.724;2023-02-28T08:54:00;3.40;60.60
68922;DHT22;55959;51.244;5.724;2023-02-28T08:56:31;3.50;59.60
68922;DHT22;55959;51.244;5.724;2023-02-28T09:02:20;3.70;59.30
68922;DHT22;55959;51.244;5.724;2023-02-28T09:04:48;3.80;58.70
68922;DHT22;55959;51.244;5.724;2023-02-28T09:10:42;3.90;58.30
68922;DHT22;55959;51.244;5.724;2023-02-28T09:13:08;4.00;57.80
68922;DHT22;55959;51.244;5.724;2023-02-28T09:15:42;4.10;57.50
68922;DHT22;55959;51.244;5.724;2023-02-28T09:18:11;4.10;57.50
68922;DHT22;55959;51.244;5.724;2023-02-28T09:20:39;4.20;56.90
68922;DHT22;55959;51.244;5.724;2023-02-28T09:23:42;4.30;56.70
68922;DHT22;55959;51.244;5.724;2023-02-28T09:26:33;4.40;56.60
68922;DHT22;55959;51.244;5.724;2023-02-28T09:29:27;4.40;56.40
68922;DHT22;55959;51.244;5.724;2023-02-28T09:32:09;4.50;56.20
68922;DHT22;55959;51.244;5.724;2023-02-28T09:38:44;4.70;55.20
68922;DHT22;55959;51.244;5.724;2023-02-28T09:41:50;4.70;53.50
68922;DHT22;55959;51.244;5.724;2023-02-28T09:44:44;4.80;53.50
68922;DHT22;55959;51.244;5.724;2023-02-28T09:48:16;4.90;52.20
68922;DHT22;55959;51.244;5.724;2023-02-28T09:51:15;5.00;51.70
68922;DHT22;55959;51.244;5.724;2023-02-28T09:54:42;5.00;51.40
68922;DHT22;55959;51.244;5.724;2023-02-28T09:57:52;5.10;50.10
68922;DHT22;55959;51.244;5.724;2023-02-28T10:00:58;5.20;49.40
68922;DHT22;55959;51.244;5.724;2023-02-28T10:04:05;5.30;50.00
68922;DHT22;55959;51.244;5.724;2023-02-28T10:21:10;5.70;46.50
68922;DHT22;55959;51.244;5.724;2023-02-28T10:23:45;5.80;46.70
68922;DHT22;55959;51.244;5.724;2023-02-28T10:30:01;5.90;46.20
68922;DHT22;55959;51.244;5.724;2023-02-28T10:32:57;6.00;45.70
68922;DHT22;55959;51.244;5.724;2023-02-28T10:35:48;6.10;45.20
68922;DHT22;55959;51.244;5.724;2023-02-28T10:38:25;6.10;44.80
68922;DHT22;55959;51.244;5.724;2023-02-28T10:41:29;6.10;44.90
68922;DHT22;55959;51.244;5.724;2023-02-28T10:44:23;6.20;45.10
68922;DHT22;55959;51.244;5.724;2023-02-28T10:46:51;6.30;44.50
68922;DHT22;55959;51.244;5.724;2023-02-28T10:49:39;6.30;45.00
68922;DHT22;55959;51.244;5.724;2023-02-28T10:57:38;6.40;44.60
68922;DHT22;55959;51.244;5.724;2023-02-28T11:00:25;6.40;44.60
68922;DHT22;55959;51.244;5.724;2023-02-28T11:06:59;6.50;43.90
68922;DHT22;55959;51.244;5.724;2023-02-28T11:13:47;6.60;43.80
68922;DHT22;55959;51.244;5.724;2023-02-28T11:16:51;6.60;44.10
68922;DHT22;55959;51.244;5.724;2023-02-28T11:20:35;6.70;43.90
68922;DHT22;55959;51.244;5.724;2023-02-28T11:23:15;6.70;44.00
68922;DHT22;55959;51.244;5.724;2023-02-28T11:26:03;6.80;43.90
68922;DHT22;55959;51.244;5.724;2023-02-28T11:28:44;6.80;43.30
68922;DHT22;55959;51.244;5.724;2023-02-28T11:31:33;6.80;43.60
68922;DHT22;55959;51.244;5.724;2023-02-28T11:34:59;6.80;43.50
68922;DHT22;55959;51.244;5.724;2023-02-28T11:38:31;6.90;44.40
68922;DHT22;55959;51.244;5.724;2023-02-28T11:43:53;7.00;43.90
68922;DHT22;55959;51.244;5.724;2023-02-28T11:49:58;7.20;44.70
68922;DHT22;55959;51.244;5.724;2023-02-28T11:56:55;7.30;44.10
68922;DHT22;55959;51.244;5.724;2023-02-28T12:03:12;7.40;43.70
68922;DHT22;55959;51.244;5.724;2023-02-28T12:15:49;7.60;43.90
68922;DHT22;55959;51.244;5.724;2023-02-28T12:24:55;7.60;44.00
68922;DHT22;55959;51.244;5.724;2023-02-28T12:27:45;7.60;42.90
68922;DHT22;55959;51.244;5.724;2023-02-28T12:30:25;7.70;42.80
68922;DHT22;55959;51.244;5.724;2023-02-28T12:40:09;7.70;42.50
68922;DHT22;55959;51.244;5.724;2023-02-28T12:46:59;7.70;43.10
68922;DHT22;55959;51.244;5.724;2023-02-28T12:49:45;7.70;43.00
68922;DHT22;55959;51.244;5.724;2023-02-28T12:58:57;7.80;43.40
68922;DHT22;55959;51.244;5.724;2023-02-28T13:08:03;7.90;43.50
68922;DHT22;55959;51.244;5.724;2023-02-28T13:11:03;7.90;43.50
68922;DHT22;55959;51.244;5.724;2023-02-28T13:13:38;8.00;42.70
68922;DHT22;55959;51.244;5.724;2023-02-28T13:16:21;8.10;42.70
68922;DHT22;55959;51.244;5.724;2023-02-28T13:18:50;8.10;42.80
68922;DHT22;55959;51.244;5.724;2023-02-28T13:21:29;8.20;42.60
68922;DHT22;55959;51.244;5.724;2023-02-28T13:23:57;8.20;42.10
68922;DHT22;55959;51.244;5.724;2023-02-28T13:32:54;8.30;42.20
68922;DHT22;55959;51.244;5.724;2023-02-28T13:38:48;8.30;41.30
68922;DHT22;55959;51.244;5.724;2023-02-28T13:49:49;8.40;41.50
68922;DHT22;55959;51.244;5.724;2023-02-28T13:52:34;8.30;42.40
68922;DHT22;55959;51.244;5.724;2023-02-28T14:13:47;8.70;41.50
68922;DHT22;55959;51.244;5.724;2023-02-28T14:16:50;8.70;40.90
68922;DHT22;55959;51.244;5.724;2023-02-28T14:19:59;8.70;41.30
68922;DHT22;55959;51.244;5.724;2023-02-28T14:39:47;8.90;40.90
68922;DHT22;55959;51.244;5.724;2023-02-28T14:42:54;8.90;40.90
68922;DHT22;55959;51.244;5.724;2023-02-28T14:50:34;9.00;40.70
68922;DHT22;55959;51.244;5.724;2023-02-28T14:53:23;9.00;40.40
68922;DHT22;55959;51.244;5.724;2023-02-28T14:56:01;9.00;40.20
68922;DHT22;55959;51.244;5.724;2023-02-28T14:58:34;9.10;40.20
68922;DHT22;55959;51.244;5.724;2023-02-28T15:01:14;9.10;40.30
68922;DHT22;55959;51.244;5.724;2023-02-28T15:08:21;9.20;40.90
68922;DHT22;55959;51.244;5.724;2023-02-28T15:10:59;9.20;40.30
68922;DHT22;55959;51.244;5.724;2023-02-28T15:16:48;9.20;40.50
68922;DHT22;55959;51.244;5.724;2023-02-28T15:29:41;9.30;39.70
68922;DHT22;55959;51.244;5.724;2023-02-28T15:35:31;9.30;39.60
68922;DHT22;55959;51.244;5.724;2023-02-28T15:40:46;9.40;40.20
68922;DHT22;55959;51.244;5.724;2023-02-28T15:43:33;9.40;40.10
68922;DHT22;55959;51.244;5.724;2023-02-28T15:48:42;9.40;39.90
68922;DHT22;55959;51.244;5.724;2023-02-28T15:51:17;9.40;40.20
68922;DHT22;55959;51.244;5.724;2023-02-28T15:56:30;9.50;40.20
68922;DHT22;55959;51.244;5.724;2023-02-28T15:59:04;9.50;40.40
68922;DHT22;55959;51.244;5.724;2023-02-28T16:01:40;9.50;40.60
68922;DHT22;55959;51.244;5.724;2023-02-28T16:04:14;9.50;41.00
68922;DHT22;55959;51.244;5.724;2023-02-28T16:07:02;9.60;40.50
68922;DHT22;55959;51.244;5.724;2023-02-28T16:09:41;9.60;40.40
68922;DHT22;55959;51.244;5.724;2023-02-28T16:12:09;9.60;40.30
68922;DHT22;55959;51.244;5.724;2023-02-28T16:14:38;9.50;40.10
68922;DHT22;55959;51.244;5.724;2023-02-28T16:17:09;9.50;40.60
68922;DHT22;55959;51.244;5.724;2023-02-28T16:19:48;9.50;40.40
68922;DHT22;55959;51.244;5.724;2023-02-28T16:22:28;9.50;40.70
68922;DHT22;55959;51.244;5.724;2023-02-28T16:24:59;9.50;40.80
68922;DHT22;55959;51.244;5.724;2023-02-28T16:27:40;9.50;40.70
68922;DHT22;55959;51.244;5.724;2023-02-28T16:30:25;9.40;40.90
68922;DHT22;55959;51.244;5.724;2023-02-28T16:32:58;9.40;41.20
68922;DHT22;55959;51.244;5.724;2023-02-28T16:35:35;9.40;41.20
68922;DHT22;55959;51.244;5.724;2023-02-28T16:38:04;9.40;41.60
68922;DHT22;55959;51.244;5.724;2023-02-28T16:40:39;9.40;41.60
68922;DHT22;55959;51.244;5.724;2023-02-28T16:43:18;9.40;41.60
68922;DHT22;55959;51.244;5.724;2023-02-28T16:46:07;9.30;41.70
68922;DHT22;55959;51.244;5.724;2023-02-28T16:52:28;9.20;42.20
68922;DHT22;55959;51.244;5.724;2023-02-28T16:55:49;9.20;42.70
68922;DHT22;55959;51.244;5.724;2023-02-28T16:58:32;9.20;43.00
68922;DHT22;55959;51.244;5.724;2023-02-28T17:01:18;9.10;43.00
68922;DHT22;55959;51.244;5.724;2023-02-28T17:03:57;9.00;43.20
68922;DHT22;55959;51.244;5.724;2023-02-28T17:06:34;9.00;43.30
68922;DHT22;55959;51.244;5.724;2023-02-28T17:09:44;9.00;43.50
68922;DHT22;55959;51.244;5.724;2023-02-28T17:12:52;9.00;43.60
68922;DHT22;55959;51.244;5.724;2023-02-28T17:15:20;8.90;43.60
68922;DHT22;55959;51.244;5.724;2023-02-28T17:17:52;8.80;43.80
68922;DHT22;55959;51.244;5.724;2023-02-28T17:20:22;8.80;43.80
68922;DHT22;55959;51.244;5.724;2023-02-28T17:22:57;8.80;43.90
68922;DHT22;55959;51.244;5.724;2023-02-28T17:25:26;8.70;44.10
68922;DHT22;55959;51.244;5.724;2023-02-28T17:28:11;8.70;44.20
68922;DHT22;55959;51.244;5.724;2023-02-28T17:30:42;8.70;44.30
68922;DHT22;55959;51.244;5.724;2023-02-28T17:33:35;8.60;44.30
68922;DHT22;55959;51.244;5.724;2023-02-28T17:45:22;8.50;44.80
68922;DHT22;55959;51.244;5.724;2023-02-28T18:08:22;8.10;45.90
68922;DHT22;55959;51.244;5.724;2023-02-28T18:15:33;8.00;46.10
68922;DHT22;55959;51.244;5.724;2023-02-28T18:18:20;7.90;46.10
68922;DHT22;55959;51.244;5.724;2023-02-28T18:25:59;7.90;46.50
68922;DHT22;55959;51.244;5.724;2023-02-28T18:33:01;7.70;46.60
68922;DHT22;55959;51.244;5.724;2023-02-28T18:36:06;7.60;46.70
68922;DHT22;55959;51.244;5.724;2023-02-28T18:45:57;7.50;47.10
68922;DHT22;55959;51.244;5.724;2023-02-28T18:48:35;7.40;47.10
68922;DHT22;55959;51.244;5.724;2023-02-28T18:51:19;7.40;47.30
68922;DHT22;55959;51.244;5.724;2023-02-28T18:53:58;7.30;47.30
68922;DHT22;55959;51.244;5.724;2023-02-28T18:56:25;7.30;47.40
68922;DHT22;55959;51.244;5.724;2023-02-28T18:58:54;7.30;47.50
68922;DHT22;55959;51.244;5.724;2023-02-28T19:01:31;7.20;47.50
68922;DHT22;55959;51.244;5.724;2023-02-28T19:04:06;7.20;47.50
68922;DHT22;55959;51.244;5.724;2023-02-28T19:09:41;7.20;47.70
68922;DHT22;55959;51.244;5.724;2023-02-28T19:12:23;7.10;47.70
68922;DHT22;55959;51.244;5.724;2023-02-28T19:14:51;7.00;47.80
68922;DHT22;55959;51.244;5.724;2023-02-28T19:17:22;7.00;47.90
68922;DHT22;55959;51.244;5.724;2023-02-28T19:20:08;7.00;47.90
68922;DHT22;55959;51.244;5.724;2023-02-28T19:22:35;6.90;47.90
68922;DHT22;55959;51.244;5.724;2023-02-28T19:25:09;6.90;48.10
68922;DHT22;55959;51.244;5.724;2023-02-28T19:27:35;6.90;48.20
68922;DHT22;55959;51.244;5.724;2023-02-28T19:30:01;6.80;48.20
68922;DHT22;55959;51.244;5.724;2023-02-28T19:32:41;6.80;48.40
68922;DHT22;55959;51.244;5.724;2023-02-28T19:35:08;6.80;48.50
68922;DHT22;55959;51.244;5.724;2023-02-28T19:37:38;6.70;48.50
68922;DHT22;55959;51.244;5.724;2023-02-28T19:40:06;6.70;48.60
68922;DHT22;55959;51.244;5.724;2023-02-28T19:42:34;6.60;48.50
68922;DHT22;55959;51.244;5.724;2023-02-28T19:45:03;6.60;48.60
68922;DHT22;55959;51.244;5.724;2023-02-28T19:47:31;6.60;48.70
68922;DHT22;55959;51.244;5.724;2023-02-28T19:49:57;6.50;48.70
68922;DHT22;55959;51.244;5.724;2023-02-28T19:52:27;6.50;48.80
68922;DHT22;55959;51.244;5.724;2023-02-28T19:54:55;6.40;48.90
68922;DHT22;55959;51.244;5.724;2023-02-28T19:57:32;6.40;49.00
68922;DHT22;55959;51.244;5.724;2023-02-28T20:00:00;6.40;49.10
68922;DHT22;55959;51.244;5.724;2023-02-28T20:02:26;6.40;49.20
68922;DHT22;55959;51.244;5.724;2023-02-28T20:04:52;6.30;49.30
68922;DHT22;55959;51.244;5.724;2023-02-28T20:07:19;6.30;49.50
68922;DHT22;55959;51.244;5.724;2023-02-28T20:09:47;6.20;49.50
68922;DHT22;55959;51.244;5.724;2023-02-28T20:15:58;6.20;49.70
68922;DHT22;55959;51.244;5.724;2023-02-28T20:18:53;6.10;49.70
68922;DHT22;55959;51.244;5.724;2023-02-28T20:21:59;6.00;49.90
68922;DHT22;55959;51.244;5.724;2023-02-28T20:24:31;6.00;50.00
68922;DHT22;55959;51.244;5.724;2023-02-28T20:27:13;5.90;50.00
68922;DHT22;55959;51.244;5.724;2023-02-28T20:29:44;5.90;50.10
68922;DHT22;55959;51.244;5.724;2023-02-28T20:38:18;5.80;50.30
68922;DHT22;55959;51.244;5.724;2023-02-28T20:40:44;5.80;50.30
68922;DHT22;55959;51.244;5.724;2023-02-28T20:43:29;5.70;50.40
68922;DHT22;55959;51.244;5.724;2023-02-28T20:45:58;5.70;50.60
68922;DHT22;55959;51.244;5.724;2023-02-28T20:48:32;5.70;50.70
68922;DHT22;55959;51.244;5.724;2023-02-28T20:51:17;5.60;50.80
68922;DHT22;55959;51.244;5.724;2023-02-28T20:53:52;5.60;50.90
68922;DHT22;55959;51.244;5.724;2023-02-28T20:56:49;5.60;51.10
68922;DHT22;55959;51.244;5.724;2023-02-28T20:59:21;5.50;51.00
68922;DHT22;55959;51.244;5.724;2023-02-28T21:02:05;5.50;51.10
68922;DHT22;55959;51.244;5.724;2023-02-28T21:04:34;5.50;51.20
68922;DHT22;55959;51.244;5.724;2023-02-28T21:07:09;5.50;51.30
68922;DHT22;55959;51.244;5.724;2023-02-28T21:09:35;5.40;51.30
68922;DHT22;55959;51.244;5.724;2023-02-28T21:12:05;5.40;51.40
68922;DHT22;55959;51.244;5.724;2023-02-28T21:14:39;5.40;51.40
68922;DHT22;55959;51.244;5.724;2023-02-28T21:17:40;5.40;51.50
68922;DHT22;55959;51.244;5.724;2023-02-28T21:20:21;5.30;51.50
68922;DHT22;55959;51.244;5.724;2023-02-28T21:23:20;5.30;51.70
68922;DHT22;55959;51.244;5.724;2023-02-28T21:25:51;5.30;51.70
68922;DHT22;55959;51.244;5.724;2023-02-28T21:28:22;5.20;51.80
68922;DHT22;55959;51.244;5.724;2023-02-28T21:30:59;5.20;51.80